sensor_id;sensor_type;location;lat;lon;timestamp;P1;durP1;ratioP1;P2;durP2;ratioP2
3307;SDS011;1666;48.898;9.182;2024-01-11T00:01:31;59.58;;;31.98;;
3307;SDS011;1666;48.898;9.182;2024-01-11T00:04:04;66.85;;;32.88;;
3307;SDS011;1666;48.898;9.182;2024-01-11T00:06:39;63.35;;;32.05;;
3307;SDS011;1666;48.898;9.182;2024-01-11T00:09:11;70.60;;;32.40;;
3307;SDS011;1666;48.898;9.182;2024-01-11T00:11:41;69.88;;;32.33;;
3307;SDS011;1666;48.898;9.182;2024-01-11T00:14:11;65.10;;;29.90;;
3307;SDS011;1666;48.898;9.182;2024-01-11T00:16:41;62.42;;;31.73;;
3307;SDS011;1666;48.898;9.182;2024-01-11T00:19:14;66.05;;;32.33;;
3307;SDS011;1666;48.898;9.182;2024-01-11T00:21:44;57.60;;;29.88;;
3307;SDS011;1666;48.898;9.182;2024-01-11T00:24:14;63.75;;;32.28;;
3307;SDS011;1666;48.898;9.182;2024-01-11T00:26:44;58.95;;;30.83;;
3307;SDS011;1666;48.898;9.182;2024-01-11T00:29:14;64.13;;;31.65;;
3307;SDS011;1666;48.898;9.182;2024-01-11T00:31:44;56.75;;;30.25;;
3307;SDS011;1666;48.898;9.182;2024-01-11T00:34:17;74.22;;;30.75;;
3307;SDS011;1666;48.898;9.182;2024-01-11T00:36:48;62.83;;;29.35;;
3307;SDS011;1666;48.898;9.182;2024-01-11T00:39:18;60.88;;;30.10;;
3307;SDS011;1666;48.898;9.182;2024-01-11T00:41:48;64.72;;;32.03;;
3307;SDS011;1666;48.898;9.182;2024-01-11T00:44:18;60.80;;;30.52;;
3307;SDS011;1666;48.898;9.182;2024-01-11T00:46:48;66.80;;;31.67;;
3307;SDS011;1666;48.898;9.182;2024-01-11T00:49:21;68.95;;;31.63;;
3307;SDS011;1666;48.898;9.182;2024-01-11T00:51:51;59.03;;;30.85;;
3307;SDS011;1666;48.898;9.182;2024-01-11T00:54:21;70.70;;;31.55;;
3307;SDS011;1666;48.898;9.182;2024-01-11T00:56:52;62.70;;;30.73;;
3307;SDS011;1666;48.898;9.182;2024-01-11T00:59:26;58.65;;;29.30;;
3307;SDS011;1666;48.898;9.182;2024-01-11T01:01:56;67.22;;;31.65;;
3307;SDS011;1666;48.898;9.182;2024-01-11T01:04:29;61.80;;;30.30;;
3307;SDS011;1666;48.898;9.182;2024-01-11T01:06:59;57.78;;;30.55;;
3307;SDS011;1666;48.898;9.182;2024-01-11T01:09:29;59.95;;;30.00;;
3307;SDS011;1666;48.898;9.182;2024-01-11T01:11:59;56.13;;;29.25;;
3307;SDS011;1666;48.898;9.182;2024-01-11T01:14:29;63.30;;;30.50;;
3307;SDS011;1666;48.898;9.182;2024-01-11T01:16:59;61.70;;;27.23;;
3307;SDS011;1666;48.898;9.182;2024-01-11T01:19:32;52.92;;;27.88;;
3307;SDS011;1666;48.898;9.182;2024-01-11T01:22:03;62.77;;;28.60;;
3307;SDS011;1666;48.898;9.182;2024-01-11T01:24:33;66.60;;;30.67;;
3307;SDS011;1666;48.898;9.182;2024-01-11T01:27:03;59.08;;;28.58;;
3307;SDS011;1666;48.898;9.182;2024-01-11T01:29:33;61.90;;;30.33;;
3307;SDS011;1666;48.898;9.182;2024-01-11T01:32:04;62.45;;;28.73;;
3307;SDS011;1666;48.898;9.182;2024-01-11T01:34:37;62.35;;;29.90;;
3307;SDS011;1666;48.898;9.182;2024-01-11T01:37:07;62.65;;;30.55;;
3307;SDS011;1666;48.898;9.182;2024-01-11T01:39:37;68.05;;;29.70;;
3307;SDS011;1666;48.898;9.182;2024-01-11T01:42:09;58.65;;;29.08;;
3307;SDS011;1666;48.898;9.182;2024-01-11T01:44:39;65.70;;;32.15;;
3307;SDS011;1666;48.898;9.182;2024-01-11T01:47:09;59.55;;;28.92;;
3307;SDS011;1666;48.898;9.182;2024-01-11T01:49:43;63.08;;;30.75;;
3307;SDS011;1666;48.898;9.182;2024-01-11T01:52:14;59.50;;;27.97;;
3307;SDS011;1666;48.898;9.182;2024-01-11T01:54:46;62.80;;;30.63;;
3307;SDS011;1666;48.898;9.182;2024-01-11T01:57:18;63.88;;;29.88;;
3307;SDS011;1666;48.898;9.182;2024-01-11T01:59:49;66.28;;;28.33;;
3307;SDS011;1666;48.898;9.182;2024-01-11T02:02:21;61.63;;;29.35;;
3307;SDS011;1666;48.898;9.182;2024-01-11T02:04:54;68.10;;;31.13;;
3307;SDS011;1666;48.898;9.182;2024-01-11T02:07:24;60.88;;;28.50;;
3307;SDS011;1666;48.898;9.182;2024-01-11T02:09:55;60.67;;;31.17;;
3307;SDS011;1666;48.898;9.182;2024-01-11T02:12:25;64.63;;;29.83;;
3307;SDS011;1666;48.898;9.182;2024-01-11T02:14:56;63.38;;;31.02;;
3307;SDS011;1666;48.898;9.182;2024-01-11T02:17:26;62.55;;;30.17;;
3307;SDS011;1666;48.898;9.182;2024-01-11T02:19:59;62.58;;;29.15;;
3307;SDS011;1666;48.898;9.182;2024-01-11T02:22:32;63.65;;;28.00;;
3307;SDS011;1666;48.898;9.182;2024-01-11T02:25:07;59.95;;;26.67;;
3307;SDS011;1666;48.898;9.182;2024-01-11T02:30:24;64.45;;;30.92;;
3307;SDS011;1666;48.898;9.182;2024-01-11T02:32:55;55.53;;;28.98;;
3307;SDS011;1666;48.898;9.182;2024-01-11T02:35:25;64.55;;;30.25;;
3307;SDS011;1666;48.898;9.182;2024-01-11T02:37:56;63.67;;;31.92;;
3307;SDS011;1666;48.898;9.182;2024-01-11T02:40:30;63.40;;;30.42;;
3307;SDS011;1666;48.898;9.182;2024-01-11T02:43:06;62.47;;;29.35;;
3307;SDS011;1666;48.898;9.182;2024-01-11T02:45:37;66.25;;;29.88;;
3307;SDS011;1666;48.898;9.182;2024-01-11T02:48:07;63.08;;;31.00;;
3307;SDS011;1666;48.898;9.182;2024-01-11T02:50:37;62.30;;;30.05;;
3307;SDS011;1666;48.898;9.182;2024-01-11T02:53:07;63.38;;;30.80;;
3307;SDS011;1666;48.898;9.182;2024-01-11T02:55:40;66.03;;;31.77;;
3307;SDS011;1666;48.898;9.182;2024-01-11T02:58:10;67.95;;;29.25;;
3307;SDS011;1666;48.898;9.182;2024-01-11T03:00:40;58.45;;;30.30;;
3307;SDS011;1666;48.898;9.182;2024-01-11T03:03:10;59.72;;;30.50;;
3307;SDS011;1666;48.898;9.182;2024-01-11T03:05:40;61.20;;;29.65;;
3307;SDS011;1666;48.898;9.182;2024-01-11T03:08:11;65.53;;;29.63;;
3307;SDS011;1666;48.898;9.182;2024-01-11T03:10:43;70.00;;;31.50;;
3307;SDS011;1666;48.898;9.182;2024-01-11T03:13:13;59.83;;;30.75;;
3307;SDS011;1666;48.898;9.182;2024-01-11T03:15:43;64.30;;;30.73;;
3307;SDS011;1666;48.898;9.182;2024-01-11T03:18:13;63.88;;;31.42;;
3307;SDS011;1666;48.898;9.182;2024-01-11T03:20:44;72.95;;;31.77;;
3307;SDS011;1666;48.898;9.182;2024-01-11T03:23:14;64.18;;;30.35;;
3307;SDS011;1666;48.898;9.182;2024-01-11T03:25:47;67.05;;;30.95;;
3307;SDS011;1666;48.898;9.182;2024-01-11T03:28:17;71.60;;;30.42;;
3307;SDS011;1666;48.898;9.182;2024-01-11T03:30:47;59.28;;;30.83;;
3307;SDS011;1666;48.898;9.182;2024-01-11T03:33:17;67.20;;;30.92;;
3307;SDS011;1666;48.898;9.182;2024-01-11T03:35:47;66.60;;;32.05;;
3307;SDS011;1666;48.898;9.182;2024-01-11T03:38:17;62.20;;;30.48;;
3307;SDS011;1666;48.898;9.182;2024-01-11T03:40:50;67.18;;;32.28;;
3307;SDS011;1666;48.898;9.182;2024-01-11T03:43:20;64.07;;;31.45;;
3307;SDS011;1666;48.898;9.182;2024-01-11T03:45:50;63.70;;;30.88;;
3307;SDS011;1666;48.898;9.182;2024-01-11T03:48:20;69.50;;;31.83;;
3307;SDS011;1666;48.898;9.182;2024-01-11T03:50:51;62.95;;;31.35;;
3307;SDS011;1666;48.898;9.182;2024-01-11T03:53:21;68.22;;;30.85;;
3307;SDS011;1666;48.898;9.182;2024-01-11T03:55:53;66.40;;;31.50;;
3307;SDS011;1666;48.898;9.182;2024-01-11T03:58:23;69.40;;;32.75;;
3307;SDS011;1666;48.898;9.182;2024-01-11T04:00:54;59.35;;;29.08;;
3307;SDS011;1666;48.898;9.182;2024-01-11T04:03:24;61.78;;;30.50;;
3307;SDS011;1666;48.898;9.182;2024-01-11T04:05:54;67.28;;;32.88;;
3307;SDS011;1666;48.898;9.182;2024-01-11T04:08:24;63.05;;;31.13;;
3307;SDS011;1666;48.898;9.182;2024-01-11T04:10:57;64.60;;;30.90;;
3307;SDS011;1666;48.898;9.182;2024-01-11T04:13:27;65.53;;;31.45;;
3307;SDS011;1666;48.898;9.182;2024-01-11T04:15:57;69.88;;;31.52;;
3307;SDS011;1666;48.898;9.182;2024-01-11T04:18:27;68.10;;;31.15;;
3307;SDS011;1666;48.898;9.182;2024-01-11T04:20:57;63.75;;;30.20;;
3307;SDS011;1666;48.898;9.182;2024-01-11T04:23:27;74.93;;;32.53;;
3307;SDS011;1666;48.898;9.182;2024-01-11T04:26:00;68.30;;;31.55;;
3307;SDS011;1666;48.898;9.182;2024-01-11T04:28:30;64.40;;;31.23;;
3307;SDS011;1666;48.898;9.182;2024-01-11T04:31:00;68.97;;;31.27;;
3307;SDS011;1666;48.898;9.182;2024-01-11T04:33:30;66.22;;;33.58;;
3307;SDS011;1666;48.898;9.182;2024-01-11T04:36:00;70.50;;;32.60;;
3307;SDS011;1666;48.898;9.182;2024-01-11T04:38:30;69.03;;;33.88;;
3307;SDS011;1666;48.898;9.182;2024-01-11T04:41:03;70.28;;;33.50;;
3307;SDS011;1666;48.898;9.182;2024-01-11T04:43:37;68.93;;;34.05;;
3307;SDS011;1666;48.898;9.182;2024-01-11T04:46:14;65.38;;;31.70;;
3307;SDS011;1666;48.898;9.182;2024-01-11T04:48:45;71.10;;;33.65;;
3307;SDS011;1666;48.898;9.182;2024-01-11T04:51:16;69.15;;;30.33;;
3307;SDS011;1666;48.898;9.182;2024-01-11T04:53:47;73.53;;;31.73;;
3307;SDS011;1666;48.898;9.182;2024-01-11T04:56:19;67.43;;;31.73;;
3307;SDS011;1666;48.898;9.182;2024-01-11T04:58:49;68.43;;;31.60;;
3307;SDS011;1666;48.898;9.182;2024-01-11T05:01:19;69.97;;;33.30;;
3307;SDS011;1666;48.898;9.182;2024-01-11T05:03:50;73.13;;;33.70;;
3307;SDS011;1666;48.898;9.182;2024-01-11T05:06:21;69.75;;;32.15;;
3307;SDS011;1666;48.898;9.182;2024-01-11T05:08:52;68.60;;;31.38;;
3307;SDS011;1666;48.898;9.182;2024-01-11T05:11:25;70.22;;;30.83;;
3307;SDS011;1666;48.898;9.182;2024-01-11T05:13:55;70.47;;;33.17;;
3307;SDS011;1666;48.898;9.182;2024-01-11T05:16:25;73.78;;;32.92;;
3307;SDS011;1666;48.898;9.182;2024-01-11T05:18:56;66.30;;;30.73;;
3307;SDS011;1666;48.898;9.182;2024-01-11T05:21:27;71.18;;;31.88;;
3307;SDS011;1666;48.898;9.182;2024-01-11T05:23:57;69.20;;;31.02;;
3307;SDS011;1666;48.898;9.182;2024-01-11T05:26:31;70.50;;;32.13;;
3307;SDS011;1666;48.898;9.182;2024-01-11T05:29:01;61.53;;;29.13;;
3307;SDS011;1666;48.898;9.182;2024-01-11T05:31:33;74.50;;;32.47;;
3307;SDS011;1666;48.898;9.182;2024-01-11T05:34:04;60.72;;;29.40;;
3307;SDS011;1666;48.898;9.182;2024-01-11T05:36:35;62.35;;;31.48;;
3307;SDS011;1666;48.898;9.182;2024-01-11T05:39:05;59.92;;;31.23;;
3307;SDS011;1666;48.898;9.182;2024-01-11T05:41:38;62.85;;;30.92;;
3307;SDS011;1666;48.898;9.182;2024-01-11T05:44:08;67.72;;;32.05;;
3307;SDS011;1666;48.898;9.182;2024-01-11T05:46:38;70.43;;;31.35;;
3307;SDS011;1666;48.898;9.182;2024-01-11T05:49:08;63.60;;;30.73;;
3307;SDS011;1666;48.898;9.182;2024-01-11T05:51:38;67.18;;;31.90;;
3307;SDS011;1666;48.898;9.182;2024-01-11T05:54:08;64.00;;;30.17;;
3307;SDS011;1666;48.898;9.182;2024-01-11T05:56:41;70.53;;;30.98;;
3307;SDS011;1666;48.898;9.182;2024-01-11T05:59:11;59.95;;;31.10;;
3307;SDS011;1666;48.898;9.182;2024-01-11T06:01:41;63.92;;;31.83;;
3307;SDS011;1666;48.898;9.182;2024-01-11T06:04:12;71.03;;;32.83;;
3307;SDS011;1666;48.898;9.182;2024-01-11T06:06:43;71.10;;;30.15;;
3307;SDS011;1666;48.898;9.182;2024-01-11T06:09:13;69.10;;;34.42;;
3307;SDS011;1666;48.898;9.182;2024-01-11T06:11:46;68.25;;;33.15;;
3307;SDS011;1666;48.898;9.182;2024-01-11T06:14:16;72.95;;;32.33;;
3307;SDS011;1666;48.898;9.182;2024-01-11T06:16:46;62.67;;;29.40;;
3307;SDS011;1666;48.898;9.182;2024-01-11T06:19:16;77.95;;;32.92;;
3307;SDS011;1666;48.898;9.182;2024-01-11T06:21:46;79.28;;;33.35;;
3307;SDS011;1666;48.898;9.182;2024-01-11T06:24:16;70.43;;;32.42;;
3307;SDS011;1666;48.898;9.182;2024-01-11T06:26:49;65.68;;;33.40;;
3307;SDS011;1666;48.898;9.182;2024-01-11T06:29:19;72.53;;;31.70;;
3307;SDS011;1666;48.898;9.182;2024-01-11T06:31:49;59.33;;;30.23;;
3307;SDS011;1666;48.898;9.182;2024-01-11T06:34:19;66.72;;;30.77;;
3307;SDS011;1666;48.898;9.182;2024-01-11T06:36:49;67.70;;;31.25;;
3307;SDS011;1666;48.898;9.182;2024-01-11T06:39:19;68.35;;;29.98;;
3307;SDS011;1666;48.898;9.182;2024-01-11T06:41:52;66.18;;;31.73;;
3307;SDS011;1666;48.898;9.182;2024-01-11T06:44:22;69.07;;;32.60;;
3307;SDS011;1666;48.898;9.182;2024-01-11T06:46:52;71.53;;;33.03;;
3307;SDS011;1666;48.898;9.182;2024-01-11T06:49:22;68.18;;;32.35;;
3307;SDS011;1666;48.898;9.182;2024-01-11T06:51:52;69.13;;;34.33;;
3307;SDS011;1666;48.898;9.182;2024-01-11T06:54:22;71.45;;;32.70;;
3307;SDS011;1666;48.898;9.182;2024-01-11T06:56:55;67.32;;;33.88;;
3307;SDS011;1666;48.898;9.182;2024-01-11T06:59:25;77.03;;;32.88;;
3307;SDS011;1666;48.898;9.182;2024-01-11T07:01:55;66.47;;;30.02;;
3307;SDS011;1666;48.898;9.182;2024-01-11T07:04:25;73.13;;;31.58;;
3307;SDS011;1666;48.898;9.182;2024-01-11T07:06:59;66.55;;;30.15;;
3307;SDS011;1666;48.898;9.182;2024-01-11T07:09:31;64.85;;;30.23;;
3307;SDS011;1666;48.898;9.182;2024-01-11T07:12:04;61.95;;;29.83;;
3307;SDS011;1666;48.898;9.182;2024-01-11T07:14:35;64.10;;;30.15;;
3307;SDS011;1666;48.898;9.182;2024-01-11T07:17:05;66.57;;;31.50;;
3307;SDS011;1666;48.898;9.182;2024-01-11T07:19:38;69.70;;;33.22;;
3307;SDS011;1666;48.898;9.182;2024-01-11T07:22:08;69.68;;;33.13;;
3307;SDS011;1666;48.898;9.182;2024-01-11T07:24:38;69.40;;;32.33;;
3307;SDS011;1666;48.898;9.182;2024-01-11T07:27:11;77.15;;;31.00;;
3307;SDS011;1666;48.898;9.182;2024-01-11T07:29:41;67.65;;;31.08;;
3307;SDS011;1666;48.898;9.182;2024-01-11T07:32:12;63.97;;;29.30;;
3307;SDS011;1666;48.898;9.182;2024-01-11T07:34:42;67.38;;;31.92;;
3307;SDS011;1666;48.898;9.182;2024-01-11T07:37:12;64.93;;;31.48;;
3307;SDS011;1666;48.898;9.182;2024-01-11T07:39:42;70.03;;;31.13;;
3307;SDS011;1666;48.898;9.182;2024-01-11T07:42:15;63.72;;;29.48;;
3307;SDS011;1666;48.898;9.182;2024-01-11T07:44:45;62.25;;;28.80;;
3307;SDS011;1666;48.898;9.182;2024-01-11T07:47:15;62.95;;;29.20;;
3307;SDS011;1666;48.898;9.182;2024-01-11T07:49:45;62.30;;;30.48;;
3307;SDS011;1666;48.898;9.182;2024-01-11T07:52:16;65.43;;;32.47;;
3307;SDS011;1666;48.898;9.182;2024-01-11T07:54:47;72.03;;;32.60;;
3307;SDS011;1666;48.898;9.182;2024-01-11T07:57:20;70.25;;;32.85;;
3307;SDS011;1666;48.898;9.182;2024-01-11T07:59:50;65.53;;;31.48;;
3307;SDS011;1666;48.898;9.182;2024-01-11T08:02:20;64.93;;;30.98;;
3307;SDS011;1666;48.898;9.182;2024-01-11T08:04:50;67.85;;;32.85;;
3307;SDS011;1666;48.898;9.182;2024-01-11T08:07:20;68.40;;;32.92;;
3307;SDS011;1666;48.898;9.182;2024-01-11T08:09:52;71.78;;;33.80;;
3307;SDS011;1666;48.898;9.182;2024-01-11T08:12:24;65.55;;;33.53;;
3307;SDS011;1666;48.898;9.182;2024-01-11T08:14:55;58.92;;;29.95;;
3307;SDS011;1666;48.898;9.182;2024-01-11T08:17:25;70.88;;;32.45;;
3307;SDS011;1666;48.898;9.182;2024-01-11T08:19:55;68.10;;;31.15;;
3307;SDS011;1666;48.898;9.182;2024-01-11T08:22:26;68.88;;;32.75;;
3307;SDS011;1666;48.898;9.182;2024-01-11T08:25:00;65.70;;;30.30;;
3307;SDS011;1666;48.898;9.182;2024-01-11T08:27:34;61.88;;;30.30;;
3307;SDS011;1666;48.898;9.182;2024-01-11T08:30:04;69.22;;;31.20;;
3307;SDS011;1666;48.898;9.182;2024-01-11T08:32:35;61.20;;;31.25;;
3307;SDS011;1666;48.898;9.182;2024-01-11T08:35:07;62.70;;;29.00;;
3307;SDS011;1666;48.898;9.182;2024-01-11T08:37:39;66.78;;;29.77;;
3307;SDS011;1666;48.898;9.182;2024-01-11T08:40:10;67.15;;;32.47;;
3307;SDS011;1666;48.898;9.182;2024-01-11T08:42:43;67.93;;;29.20;;
3307;SDS011;1666;48.898;9.182;2024-01-11T08:45:14;64.67;;;30.17;;
3307;SDS011;1666;48.898;9.182;2024-01-11T08:47:45;70.82;;;33.00;;
3307;SDS011;1666;48.898;9.182;2024-01-11T08:50:15;95.03;;;40.55;;
3307;SDS011;1666;48.898;9.182;2024-01-11T08:52:50;74.50;;;35.13;;
3307;SDS011;1666;48.898;9.182;2024-01-11T08:55:22;59.47;;;30.85;;
3307;SDS011;1666;48.898;9.182;2024-01-11T08:57:56;67.63;;;30.92;;
3307;SDS011;1666;48.898;9.182;2024-01-11T09:00:26;63.85;;;32.78;;
3307;SDS011;1666;48.898;9.182;2024-01-11T09:02:56;69.63;;;34.15;;
3307;SDS011;1666;48.898;9.182;2024-01-11T09:05:27;63.15;;;32.40;;
3307;SDS011;1666;48.898;9.182;2024-01-11T09:07:58;64.20;;;29.75;;
3307;SDS011;1666;48.898;9.182;2024-01-11T09:10:28;61.92;;;30.35;;
3307;SDS011;1666;48.898;9.182;2024-01-11T09:13:01;76.20;;;30.90;;
3307;SDS011;1666;48.898;9.182;2024-01-11T09:15:31;66.72;;;31.20;;
3307;SDS011;1666;48.898;9.182;2024-01-11T09:18:02;63.30;;;29.27;;
3307;SDS011;1666;48.898;9.182;2024-01-11T09:20:34;58.85;;;29.63;;
3307;SDS011;1666;48.898;9.182;2024-01-11T09:23:05;59.28;;;29.88;;
3307;SDS011;1666;48.898;9.182;2024-01-11T09:25:35;59.00;;;29.08;;
3307;SDS011;1666;48.898;9.182;2024-01-11T09:28:08;55.30;;;27.90;;
3307;SDS011;1666;48.898;9.182;2024-01-11T09:30:39;61.63;;;29.25;;
3307;SDS011;1666;48.898;9.182;2024-01-11T09:33:09;55.67;;;28.80;;
3307;SDS011;1666;48.898;9.182;2024-01-11T09:35:39;57.00;;;27.88;;
3307;SDS011;1666;48.898;9.182;2024-01-11T09:38:09;55.60;;;28.00;;
3307;SDS011;1666;48.898;9.182;2024-01-11T09:40:40;63.67;;;28.13;;
3307;SDS011;1666;48.898;9.182;2024-01-11T09:43:13;69.18;;;34.10;;
3307;SDS011;1666;48.898;9.182;2024-01-11T09:45:43;54.83;;;28.23;;
3307;SDS011;1666;48.898;9.182;2024-01-11T09:48:13;62.00;;;30.48;;
3307;SDS011;1666;48.898;9.182;2024-01-11T09:50:44;58.63;;;29.23;;
3307;SDS011;1666;48.898;9.182;2024-01-11T09:53:14;60.90;;;30.08;;
3307;SDS011;1666;48.898;9.182;2024-01-11T09:55:47;59.85;;;31.00;;
3307;SDS011;1666;48.898;9.182;2024-01-11T09:58:20;58.90;;;30.42;;
3307;SDS011;1666;48.898;9.182;2024-01-11T10:00:52;61.67;;;31.15;;
3307;SDS011;1666;48.898;9.182;2024-01-11T10:03:26;52.35;;;29.88;;
3307;SDS011;1666;48.898;9.182;2024-01-11T10:05:57;56.17;;;29.38;;
3307;SDS011;1666;48.898;9.182;2024-01-11T10:08:28;57.20;;;31.15;;
3307;SDS011;1666;48.898;9.182;2024-01-11T10:11:00;51.88;;;29.30;;
3307;SDS011;1666;48.898;9.182;2024-01-11T10:13:33;57.95;;;30.77;;
3307;SDS011;1666;48.898;9.182;2024-01-11T10:16:05;53.30;;;29.50;;
3307;SDS011;1666;48.898;9.182;2024-01-11T10:18:36;59.63;;;33.38;;
3307;SDS011;1666;48.898;9.182;2024-01-11T10:21:07;59.70;;;35.97;;
3307;SDS011;1666;48.898;9.182;2024-01-11T10:23:37;59.15;;;31.25;;
3307;SDS011;1666;48.898;9.182;2024-01-11T10:26:08;58.83;;;32.15;;
3307;SDS011;1666;48.898;9.182;2024-01-11T10:28:42;63.47;;;36.10;;
3307;SDS011;1666;48.898;9.182;2024-01-11T10:31:13;60.22;;;33.65;;
3307;SDS011;1666;48.898;9.182;2024-01-11T10:33:44;58.33;;;32.38;;
3307;SDS011;1666;48.898;9.182;2024-01-11T10:36:15;60.08;;;33.33;;
3307;SDS011;1666;48.898;9.182;2024-01-11T10:38:46;57.80;;;33.05;;
3307;SDS011;1666;48.898;9.182;2024-01-11T10:41:18;58.70;;;34.05;;
3307;SDS011;1666;48.898;9.182;2024-01-11T10:43:52;57.22;;;34.17;;
3307;SDS011;1666;48.898;9.182;2024-01-11T10:46:26;57.13;;;33.30;;
3307;SDS011;1666;48.898;9.182;2024-01-11T10:48:58;61.45;;;35.13;;
3307;SDS011;1666;48.898;9.182;2024-01-11T10:51:31;57.35;;;35.08;;
3307;SDS011;1666;48.898;9.182;2024-01-11T10:54:02;56.65;;;33.63;;
3307;SDS011;1666;48.898;9.182;2024-01-11T10:56:32;58.22;;;32.17;;
3307;SDS011;1666;48.898;9.182;2024-01-11T10:59:08;63.88;;;32.25;;
3307;SDS011;1666;48.898;9.182;2024-01-11T11:01:39;63.15;;;35.40;;
3307;SDS011;1666;48.898;9.182;2024-01-11T11:04:10;59.25;;;35.03;;
3307;SDS011;1666;48.898;9.182;2024-01-11T11:06:41;60.83;;;36.53;;
3307;SDS011;1666;48.898;9.182;2024-01-11T11:09:12;59.97;;;34.45;;
3307;SDS011;1666;48.898;9.182;2024-01-11T11:11:44;60.28;;;35.80;;
3307;SDS011;1666;48.898;9.182;2024-01-11T11:14:18;58.58;;;34.65;;
3307;SDS011;1666;48.898;9.182;2024-01-11T11:16:49;55.42;;;32.70;;
3307;SDS011;1666;48.898;9.182;2024-01-11T11:19:20;60.47;;;35.85;;
3307;SDS011;1666;48.898;9.182;2024-01-11T11:21:50;56.85;;;34.55;;
3307;SDS011;1666;48.898;9.182;2024-01-11T11:24:21;58.25;;;33.67;;
3307;SDS011;1666;48.898;9.182;2024-01-11T11:26:51;55.03;;;32.65;;
3307;SDS011;1666;48.898;9.182;2024-01-11T11:29:26;59.70;;;35.70;;
3307;SDS011;1666;48.898;9.182;2024-01-11T11:31:56;60.83;;;34.13;;
3307;SDS011;1666;48.898;9.182;2024-01-11T11:37:12;59.20;;;34.47;;
3307;SDS011;1666;48.898;9.182;2024-01-11T11:39:51;61.78;;;35.03;;
3307;SDS011;1666;48.898;9.182;2024-01-11T11:42:23;62.40;;;35.70;;
3307;SDS011;1666;48.898;9.182;2024-01-11T11:45:00;58.83;;;35.90;;
3307;SDS011;1666;48.898;9.182;2024-01-11T11:47:34;58.28;;;33.28;;
3307;SDS011;1666;48.898;9.182;2024-01-11T11:50:06;54.90;;;33.17;;
3307;SDS011;1666;48.898;9.182;2024-01-11T11:52:37;56.25;;;33.88;;
3307;SDS011;1666;48.898;9.182;2024-01-11T11:55:08;54.30;;;33.22;;
3307;SDS011;1666;48.898;9.182;2024-01-11T11:57:39;58.28;;;34.08;;
3307;SDS011;1666;48.898;9.182;2024-01-11T12:00:16;62.63;;;35.47;;
3307;SDS011;1666;48.898;9.182;2024-01-11T12:02:46;63.65;;;37.38;;
3307;SDS011;1666;48.898;9.182;2024-01-11T12:05:19;65.13;;;34.33;;
3307;SDS011;1666;48.898;9.182;2024-01-11T12:07:50;60.95;;;35.08;;
3307;SDS011;1666;48.898;9.182;2024-01-11T12:10:20;65.43;;;35.45;;
3307;SDS011;1666;48.898;9.182;2024-01-11T12:12:50;58.47;;;34.30;;
3307;SDS011;1666;48.898;9.182;2024-01-11T12:15:23;61.13;;;35.47;;
3307;SDS011;1666;48.898;9.182;2024-01-11T12:17:57;59.97;;;35.70;;
3307;SDS011;1666;48.898;9.182;2024-01-11T12:20:28;70.63;;;35.63;;
3307;SDS011;1666;48.898;9.182;2024-01-11T12:22:58;59.80;;;35.60;;
3307;SDS011;1666;48.898;9.182;2024-01-11T12:25:29;66.53;;;36.25;;
3307;SDS011;1666;48.898;9.182;2024-01-11T12:27:59;60.33;;;35.60;;
3307;SDS011;1666;48.898;9.182;2024-01-11T12:30:32;60.83;;;35.10;;
3307;SDS011;1666;48.898;9.182;2024-01-11T12:33:03;63.00;;;35.95;;
3307;SDS011;1666;48.898;9.182;2024-01-11T12:35:34;64.15;;;36.50;;
3307;SDS011;1666;48.898;9.182;2024-01-11T12:38:05;62.05;;;36.72;;
3307;SDS011;1666;48.898;9.182;2024-01-11T12:40:36;63.85;;;35.42;;
3307;SDS011;1666;48.898;9.182;2024-01-11T12:43:07;61.97;;;35.17;;
3307;SDS011;1666;48.898;9.182;2024-01-11T12:45:40;65.45;;;37.85;;
3307;SDS011;1666;48.898;9.182;2024-01-11T12:48:10;62.45;;;35.40;;
3307;SDS011;1666;48.898;9.182;2024-01-11T12:50:43;64.60;;;37.50;;
3307;SDS011;1666;48.898;9.182;2024-01-11T12:53:14;57.45;;;34.63;;
3307;SDS011;1666;48.898;9.182;2024-01-11T12:55:47;63.83;;;36.72;;
3307;SDS011;1666;48.898;9.182;2024-01-11T12:58:24;63.15;;;37.03;;
3307;SDS011;1666;48.898;9.182;2024-01-11T13:00:57;55.75;;;33.85;;
3307;SDS011;1666;48.898;9.182;2024-01-11T13:03:28;64.63;;;35.30;;
3307;SDS011;1666;48.898;9.182;2024-01-11T13:05:58;70.97;;;35.85;;
3307;SDS011;1666;48.898;9.182;2024-01-11T13:08:29;63.72;;;35.92;;
3307;SDS011;1666;48.898;9.182;2024-01-11T13:10:59;67.43;;;36.25;;
3307;SDS011;1666;48.898;9.182;2024-01-11T13:13:33;55.60;;;34.80;;
3307;SDS011;1666;48.898;9.182;2024-01-11T13:16:06;57.53;;;35.35;;
3307;SDS011;1666;48.898;9.182;2024-01-11T13:18:41;56.35;;;33.63;;
3307;SDS011;1666;48.898;9.182;2024-01-11T13:21:11;64.78;;;36.15;;
3307;SDS011;1666;48.898;9.182;2024-01-11T13:23:41;55.53;;;32.65;;
3307;SDS011;1666;48.898;9.182;2024-01-11T13:26:12;67.57;;;34.97;;
3307;SDS011;1666;48.898;9.182;2024-01-11T13:28:42;56.00;;;32.47;;
3307;SDS011;1666;48.898;9.182;2024-01-11T13:31:15;61.45;;;35.53;;
3307;SDS011;1666;48.898;9.182;2024-01-11T13:33:46;56.77;;;33.70;;
3307;SDS011;1666;48.898;9.182;2024-01-11T13:36:16;59.30;;;34.30;;
3307;SDS011;1666;48.898;9.182;2024-01-11T13:38:46;56.10;;;32.47;;
3307;SDS011;1666;48.898;9.182;2024-01-11T13:41:17;60.20;;;34.25;;
3307;SDS011;1666;48.898;9.182;2024-01-11T13:43:47;59.13;;;35.10;;
3307;SDS011;1666;48.898;9.182;2024-01-11T13:46:20;60.38;;;34.38;;
3307;SDS011;1666;48.898;9.182;2024-01-11T13:48:50;55.92;;;34.42;;
3307;SDS011;1666;48.898;9.182;2024-01-11T13:51:21;58.85;;;33.83;;
3307;SDS011;1666;48.898;9.182;2024-01-11T13:53:51;55.65;;;33.45;;
3307;SDS011;1666;48.898;9.182;2024-01-11T13:56:21;57.20;;;35.00;;
3307;SDS011;1666;48.898;9.182;2024-01-11T13:58:51;63.28;;;34.50;;
3307;SDS011;1666;48.898;9.182;2024-01-11T14:01:23;54.65;;;33.05;;
3307;SDS011;1666;48.898;9.182;2024-01-11T14:03:53;61.17;;;35.28;;
3307;SDS011;1666;48.898;9.182;2024-01-11T14:06:24;62.45;;;35.28;;
3307;SDS011;1666;48.898;9.182;2024-01-11T14:08:54;63.63;;;34.80;;
3307;SDS011;1666;48.898;9.182;2024-01-11T14:11:24;61.88;;;35.60;;
3307;SDS011;1666;48.898;9.182;2024-01-11T14:13:54;61.20;;;35.72;;
3307;SDS011;1666;48.898;9.182;2024-01-11T14:16:27;60.53;;;34.35;;
3307;SDS011;1666;48.898;9.182;2024-01-11T14:18:57;64.43;;;34.95;;
3307;SDS011;1666;48.898;9.182;2024-01-11T14:21:28;58.15;;;33.75;;
3307;SDS011;1666;48.898;9.182;2024-01-11T14:23:58;66.63;;;35.63;;
3307;SDS011;1666;48.898;9.182;2024-01-11T14:26:28;62.13;;;35.33;;
3307;SDS011;1666;48.898;9.182;2024-01-11T14:28:59;58.95;;;35.13;;
3307;SDS011;1666;48.898;9.182;2024-01-11T14:31:33;54.50;;;34.15;;
3307;SDS011;1666;48.898;9.182;2024-01-11T14:34:04;61.65;;;36.58;;
3307;SDS011;1666;48.898;9.182;2024-01-11T14:36:34;61.92;;;34.95;;
3307;SDS011;1666;48.898;9.182;2024-01-11T14:39:04;58.70;;;34.80;;
3307;SDS011;1666;48.898;9.182;2024-01-11T14:41:36;62.42;;;35.30;;
3307;SDS011;1666;48.898;9.182;2024-01-11T14:44:06;57.13;;;34.15;;
3307;SDS011;1666;48.898;9.182;2024-01-11T14:46:40;56.25;;;33.30;;
3307;SDS011;1666;48.898;9.182;2024-01-11T14:49:10;58.45;;;34.85;;
3307;SDS011;1666;48.898;9.182;2024-01-11T14:51:41;57.60;;;34.13;;
3307;SDS011;1666;48.898;9.182;2024-01-11T14:54:11;60.45;;;34.13;;
3307;SDS011;1666;48.898;9.182;2024-01-11T14:56:41;57.22;;;33.95;;
3307;SDS011;1666;48.898;9.182;2024-01-11T14:59:11;58.03;;;35.05;;
3307;SDS011;1666;48.898;9.182;2024-01-11T15:01:44;62.97;;;35.05;;
3307;SDS011;1666;48.898;9.182;2024-01-11T15:04:15;58.30;;;35.63;;
3307;SDS011;1666;48.898;9.182;2024-01-11T15:06:45;60.55;;;34.42;;
3307;SDS011;1666;48.898;9.182;2024-01-11T15:09:16;57.13;;;34.90;;
3307;SDS011;1666;48.898;9.182;2024-01-11T15:11:46;53.88;;;33.10;;
3307;SDS011;1666;48.898;9.182;2024-01-11T15:14:17;56.33;;;34.63;;
3307;SDS011;1666;48.898;9.182;2024-01-11T15:16:50;56.17;;;34.60;;